This is the latest recevied weather packets stored in our database for station/object VE6EN. If no packets are shown the sender has not sent any weather packets the latest 10 day(s).
| Time | Temp. | Humidity | Pressure | Rain* | Wind** | Luminosity | Snow |
|---|---|---|---|---|---|---|---|
| 1787914810 | 10.56° C | 69% | 1010.5 hPa | 0 mm | - | - | - |
| 1787914203 | 10.56° C | 68% | 1010.5 hPa | 0 mm | - | - | - |
| 1787913609 | 10.56° C | 68% | 1010.4 hPa | 0 mm | - | - | - |
| 1787913004 | 11.11° C | 66% | 1010.3 hPa | 0 mm | - | - | - |
| 1787912400 | 11.67° C | 65% | 1010.2 hPa | 0 mm | - | - | - |
| 1787911800 | 11.67° C | 64% | 1010.1 hPa | 0 mm | - | - | - |
| 1787911210 | 12.22° C | 63% | 1010 hPa | 0 mm | - | - | - |
| 1787910609 | 12.78° C | 62% | 1010.1 hPa | 0 mm | - | - | - |
| 1787910008 | 13.33° C | 60% | 1010.1 hPa | 0 mm | - | - | - |
| 1787909405 | 13.89° C | 58% | 1010.1 hPa | 0 mm | - | - | - |
| 1787908802 | 14.44° C | 56% | 1010.1 hPa | 0 mm | - | - | - |
| 1787908201 | 14.44° C | 55% | 1010 hPa | 0 mm | - | - | - |
| 1787907602 | 15° C | 52% | 1010.1 hPa | 0 mm | - | - | - |
| 1787907006 | 15.56° C | 52% | 1010 hPa | 0 mm | - | - | - |
| 1787906404 | 16.67° C | 47% | 1009.9 hPa | 0 mm | - | - | - |
| 1787905804 | 16.67° C | 46% | 1009.6 hPa | 0 mm | - | - | - |
| 1787905204 | 16.67° C | 46% | 1009.5 hPa | 0 mm | - | - | - |
| 1787904604 | 16.67° C | 46% | 1009.3 hPa | 0 mm | - | - | - |
| 1787904004 | 16.67° C | 46% | 1009.3 hPa | 0 mm | - | - | - |
| 1787903406 | 16.67° C | 46% | 1009.2 hPa | 0 mm | - | - | - |
| 1787902805 | 16.67° C | 46% | 1009.2 hPa | 0 mm | - | - | - |
| 1787902199 | 16.67° C | 46% | 1009 hPa | 0 mm | - | - | - |
| 1787901604 | 16.67° C | 47% | 1008.9 hPa | 0 mm | - | - | - |
| 1787901003 | 16.67° C | 47% | 1008.8 hPa | 0 mm | - | - | - |
| 1787900404 | 16.67° C | 48% | 1008.8 hPa | 0 mm | - | - | - |
* Rain latest hour (hover to see other rain measurements)
** Current wind speed in m/s (hover to see current wind gust speed)